Danville Regional Airport
KDAN : now visible

Airfield :











YOU CAN JOIN US ON...

 
LOGIN :

Register | Disclaimer

   EN    FR    IT 

 









Legend :    VFR   Marginal VFR   IFR   Intensive IFR   Very Intensive IFR
Visi :
Ceiling :
>= 8 km
>= 3000ft
5 to 8 km
1000 to 3000 ft
1500m to 5 km
500 to 1000 ft
800 to 1500m
200 to 500 ft
< 800m
< 200 ft
Symbols :   Thunderstorms  Fog  Heavy snow  Heavy precipitations  Wind > 20 kt






- Airport Elevation : 571 ft
- IATA code : DAN


KDAN - Danville Regional

CURRENT METAR :
  • 010153Z AUTO 03011KT 10SM -RA BKN009 OVC033 08/07 A2973 RMK AO2 SLP061 P0002 T00780067

EXPIRED METARs :
  • 010053Z AUTO 05008KT 10SM -RA OVC009 08/07 A2974 RMK AO2 RAE2354B33 CIG 007V014 SLP064 P0000 T00830072
  • 312353Z AUTO 05008KT 10SM -RA BKN008 OVC037 08/07 A2974 RMK AO2 RAB30 SLP067 P0001 60007 T00830067 10100 20078 56012
  • 312314Z AUTO 04009KT 10SM FEW008 BKN041 OVC055 08/07 A2975 RMK AO2 T00780067

TAF KDAN
Valid from the 01 at 00:00 until the 02 at 00:00 UTC


312327Z 0100/0124 05010KT P6SM VCSH OVC040
TEMPO 0102/0105 5SM -RA OVC015
FM010500 03010KT P6SM OVC015
FM011500 02006KT P6SM BKN035



MET'MAP, your aeronautical weather chart ! - Copyright ORBIFLY December 2007 - Disclaimer

ORBIFLY MET'MAP TEAM :

Programming & Development : Alexandra Zaïnal
Concept & original design : Baudouin d'Aumeries
Assistance for programming : Marc-Olivier Méhu
Technical & hardware support : Manuel Goepfert

Contact : metmap@orbifly.com




SOURCES & CREDITS :

   NOAA       Earth
Advisory